Time;durP1;ratioP1;P1;durP2;ratioP2;P2;SDS_P1;SDS_P2;PMS_P1;PMS_P2;Temp;Humidity;BMP_temperature;BMP_pressure;BME280_temperature;BME280_humidity;BME280_pressure;Samples;Min_cycle;Max_cycle;Signal;HPM_P1;HPM_P2
2022/03/10 00:02:09;;;;;;;20.48;13.13;;;7.10;89.00;;;;;;5033149;28;20539;-67
2022/03/10 00:04:38;;;;;;;20.42;13.52;;;7.00;89.20;;;;;;5040636;28;20485;-65
2022/03/10 00:07:04;;;;;;;16.75;11.55;;;6.90;90.30;;;;;;5049171;28;20041;-66
2022/03/10 00:09:33;;;;;;;19.00;13.23;;;6.90;90.20;;;;;;5043297;28;20044;-66
2022/03/10 00:11:59;;;;;;;19.10;13.70;;;6.90;90.30;;;;;;5034051;28;20126;-66
2022/03/10 00:14:26;;;;;;;18.50;13.65;;;6.90;88.90;;;;;;5047956;28;20980;-66
2022/03/10 00:16:52;;;;;;;17.60;12.52;;;6.90;90.30;;;;;;5048157;28;20144;-66
2022/03/10 00:19:18;;;;;;;18.60;11.82;;;6.80;89.10;;;;;;5033288;28;20118;-66
2022/03/10 00:21:44;;;;;;;16.73;12.57;;;6.80;89.80;;;;;;5028332;28;20037;-66
2022/03/10 00:24:09;;;;;;;20.42;13.82;;;6.70;90.00;;;;;;5030642;28;20049;-66
2022/03/10 00:26:37;;;;;;;18.65;12.68;;;6.70;90.30;;;;;;5047422;28;20045;-66
2022/03/10 00:29:03;;;;;;;18.98;13.15;;;6.70;90.60;;;;;;5034139;28;20136;-66
2022/03/10 00:31:28;;;;;;;24.33;13.63;;;6.60;90.50;;;;;;5046152;28;20380;-66
2022/03/10 00:33:54;;;;;;;17.33;12.32;;;6.70;90.20;;;;;;5046979;28;20045;-66
2022/03/10 00:36:20;;;;;;;22.25;13.00;;;6.60;90.20;;;;;;5039957;28;20052;-66
2022/03/10 00:38:45;;;;;;;18.70;12.38;;;6.60;90.50;;;;;;5028143;28;20049;-66
2022/03/10 00:41:11;;;;;;;19.48;11.98;;;6.60;91.00;;;;;;5027243;28;20053;-66
2022/03/10 00:43:36;;;;;;;16.85;11.57;;;6.50;90.60;;;;;;5028190;28;20045;-66
2022/03/10 00:46:02;;;;;;;20.10;13.00;;;6.50;90.90;;;;;;5033371;28;20049;-66
2022/03/10 00:48:28;;;;;;;18.83;12.63;;;6.40;91.20;;;;;;5047807;28;20037;-66
2022/03/10 00:50:54;;;;;;;18.58;11.32;;;6.40;91.20;;;;;;5041846;28;20081;-66
2022/03/10 00:53:19;;;;;;;19.63;12.30;;;6.30;91.30;;;;;;5026408;28;20096;-66
2022/03/10 00:55:45;;;;;;;18.70;12.27;;;6.40;91.40;;;;;;5028480;28;20049;-66
2022/03/10 00:58:11;;;;;;;18.48;11.38;;;6.30;91.00;;;;;;5046253;28;20535;-67
2022/03/10 01:00:36;;;;;;;16.23;12.00;;;6.30;90.70;;;;;;5045445;28;20063;-66
2022/03/10 01:03:03;;;;;;;17.05;10.75;;;6.50;90.10;;;;;;5029595;28;20049;-66
2022/03/10 01:05:29;;;;;;;27.45;12.57;;;6.40;90.50;;;;;;5029208;28;20048;-66
2022/03/10 01:07:54;;;;;;;20.60;11.90;;;6.40;89.90;;;;;;5026670;28;20057;-66
2022/03/10 01:10:20;;;;;;;16.33;10.95;;;6.50;89.80;;;;;;5029582;28;20049;-66
2022/03/10 01:12:46;;;;;;;17.85;12.23;;;6.40;89.70;;;;;;5034451;28;20060;-66
2022/03/10 01:15:14;;;;;;;18.60;11.82;;;6.50;88.80;;;;;;5046813;28;20052;-66
2022/03/10 01:17:40;;;;;;;15.88;11.68;;;6.40;89.50;;;;;;5048325;28;20041;-66
2022/03/10 01:20:06;;;;;;;19.17;11.43;;;6.40;88.60;;;;;;5032006;28;20048;-66
2022/03/10 01:22:34;;;;;;;23.13;12.45;;;6.50;89.60;;;;;;5039370;28;20041;-66
2022/03/10 01:24:59;;;;;;;30.38;12.98;;;6.40;90.00;;;;;;5036850;28;20041;-66
2022/03/10 01:27:25;;;;;;;17.90;10.85;;;6.40;89.00;;;;;;5039144;28;20435;-66
2022/03/10 01:29:50;;;;;;;16.42;11.05;;;6.40;89.20;;;;;;5028379;28;20083;-66
2022/03/10 01:32:16;;;;;;;19.98;12.15;;;6.40;88.90;;;;;;5042510;28;20041;-66
2022/03/10 01:34:41;;;;;;;20.33;11.60;;;6.40;88.20;;;;;;5044178;28;20111;-66
2022/03/10 01:37:07;;;;;;;17.75;12.13;;;6.40;90.00;;;;;;5027565;28;20044;-66
2022/03/10 01:39:32;;;;;;;21.33;11.65;;;6.30;90.40;;;;;;5028302;28;20061;-66
2022/03/10 01:41:59;;;;;;;15.50;12.18;;;6.30;90.30;;;;;;5026681;28;20049;-66
2022/03/10 01:44:25;;;;;;;18.13;11.95;;;6.10;91.60;;;;;;5026302;28;20556;-66
2022/03/10 01:46:51;;;;;;;15.40;11.23;;;6.10;91.50;;;;;;5045666;28;20051;-67
2022/03/10 01:49:16;;;;;;;19.63;11.68;;;6.00;91.40;;;;;;5036779;28;20041;-66
2022/03/10 01:51:43;;;;;;;20.38;11.32;;;6.10;91.60;;;;;;5045453;28;20052;-66
2022/03/10 01:54:09;;;;;;;18.55;11.77;;;6.00;91.90;;;;;;5044107;28;20567;-66
2022/03/10 01:56:35;;;;;;;20.10;12.07;;;6.00;91.90;;;;;;5030767;28;20556;-66
2022/03/10 01:59:02;;;;;;;19.05;13.02;;;6.00;90.90;;;;;;5029604;28;20128;-66
2022/03/10 02:01:28;;;;;;;19.80;11.98;;;5.90;91.50;;;;;;5047379;28;20041;-66
2022/03/10 02:03:56;;;;;;;17.33;11.60;;;5.90;91.60;;;;;;5035769;28;20064;-66
2022/03/10 02:06:22;;;;;;;15.27;11.27;;;5.90;92.00;;;;;;5029223;28;20049;-66
2022/03/10 02:11:32;;;;;;;19.73;13.18;;;5.80;92.00;;;;;;5030437;28;20115;-66
2022/03/10 02:13:57;;;;;;;20.75;12.90;;;5.80;91.90;;;;;;5031963;28;20041;-66
2022/03/10 02:19:07;;;;;;;24.52;14.23;;;5.70;92.50;;;;;;5050006;28;20111;-66
2022/03/10 02:21:33;;;;;;;22.75;13.35;;;5.60;92.80;;;;;;5051326;28;20052;-66
2022/03/10 02:23:58;;;;;;;22.35;12.07;;;5.60;92.40;;;;;;5041473;28;20034;-66
2022/03/10 02:26:24;;;;;;;19.60;12.32;;;5.50;93.30;;;;;;5030745;28;20077;-66
2022/03/10 02:28:50;;;;;;;24.55;12.82;;;5.60;92.70;;;;;;5030012;28;20121;-66
2022/03/10 02:31:15;;;;;;;21.55;14.23;;;5.60;92.60;;;;;;5032278;28;20073;-66
2022/03/10 02:33:41;;;;;;;20.70;14.32;;;5.60;92.80;;;;;;5032393;28;20045;-66
2022/03/10 02:36:07;;;;;;;21.50;12.35;;;5.50;93.20;;;;;;5037477;28;20384;-67
2022/03/10 02:38:33;;;;;;;29.92;13.55;;;5.50;93.30;;;;;;5041598;28;20113;-66
2022/03/10 02:40:59;;;;;;;20.52;13.35;;;5.50;93.20;;;;;;5030878;28;20124;-66
2022/03/10 02:43:24;;;;;;;24.58;13.82;;;5.40;93.80;;;;;;5030539;28;20843;-66
2022/03/10 02:45:51;;;;;;;19.75;13.70;;;5.30;93.60;;;;;;5036434;28;20033;-66
2022/03/10 02:48:17;;;;;;;20.60;13.45;;;5.40;92.90;;;;;;5048064;28;20040;-66
2022/03/10 02:50:45;;;;;;;21.35;14.20;;;5.40;93.40;;;;;;5050437;28;20120;-66
2022/03/10 02:53:11;;;;;;;23.90;14.80;;;5.40;93.10;;;;;;5037904;28;20136;-66
2022/03/10 02:55:38;;;;;;;23.52;13.88;;;5.40;93.60;;;;;;5030637;28;20049;-66
2022/03/10 02:58:03;;;;;;;23.13;14.25;;;5.40;93.30;;;;;;5036130;28;20464;-66
2022/03/10 03:00:29;;;;;;;19.77;12.32;;;5.50;92.30;;;;;;5031166;28;20080;-66
2022/03/10 03:02:55;;;;;;;17.80;12.45;;;5.50;93.20;;;;;;5042306;28;20382;-66
2022/03/10 03:05:20;;;;;;;23.40;13.57;;;5.60;92.20;;;;;;5050186;28;20098;-66
2022/03/10 03:07:48;;;;;;;21.42;13.32;;;5.60;91.70;;;;;;5050315;28;20048;-66
2022/03/10 03:10:14;;;;;;;21.70;13.23;;;5.60;91.70;;;;;;5043292;28;20472;-66
2022/03/10 03:12:45;;;;;;;18.17;13.32;;;5.50;91.30;;;;;;5049578;28;20048;-66
2022/03/10 03:15:10;;;;;;;19.98;13.52;;;5.60;91.10;;;;;;5049102;28;20041;-66
2022/03/10 03:17:36;;;;;;;23.02;13.27;;;5.50;92.10;;;;;;5032285;28;20045;-66
2022/03/10 03:20:01;;;;;;;19.90;12.43;;;5.50;91.90;;;;;;5036083;28;20067;-66
2022/03/10 03:22:27;;;;;;;27.27;13.43;;;5.50;91.80;;;;;;5049691;28;20036;-66
2022/03/10 03:24:52;;;;;;;21.63;14.55;;;5.50;91.10;;;;;;5048378;28;20052;-66
2022/03/10 03:27:18;;;;;;;19.02;12.40;;;5.50;92.10;;;;;;5048674;28;20049;-66
2022/03/10 03:29:44;;;;;;;24.25;13.02;;;5.50;91.50;;;;;;5041690;28;20111;-66
2022/03/10 03:32:09;;;;;;;20.92;13.00;;;5.50;91.40;;;;;;5034015;28;20089;-66
2022/03/10 03:34:35;;;;;;;18.88;13.27;;;5.50;91.90;;;;;;5030752;28;20058;-66
2022/03/10 03:37:00;;;;;;;19.23;13.57;;;5.40;92.70;;;;;;5028497;28;20084;-66
2022/03/10 03:39:26;;;;;;;24.08;13.55;;;5.30;93.40;;;;;;5028463;28;20125;-66
2022/03/10 03:41:51;;;;;;;17.90;13.23;;;5.20;93.70;;;;;;5029071;28;20041;-66
2022/03/10 03:44:17;;;;;;;21.50;12.35;;;5.20;93.90;;;;;;5031428;28;20107;-66
2022/03/10 03:46:42;;;;;;;22.50;14.20;;;5.10;94.60;;;;;;5045333;28;20048;-66
2022/03/10 03:49:08;;;;;;;18.25;12.98;;;5.10;94.80;;;;;;5036198;28;20045;-66
2022/03/10 03:51:35;;;;;;;20.65;14.30;;;5.00;94.90;;;;;;5042031;28;20076;-66
2022/03/10 03:54:01;;;;;;;21.00;13.82;;;5.00;94.70;;;;;;5049492;28;20128;-66
2022/03/10 03:56:26;;;;;;;18.10;12.93;;;5.00;95.10;;;;;;5030381;28;20752;-66
2022/03/10 03:58:52;;;;;;;19.10;13.73;;;4.90;95.30;;;;;;5029728;28;20387;-66
2022/03/10 04:01:18;;;;;;;27.70;15.45;;;5.00;94.60;;;;;;5046450;28;20052;-65
2022/03/10 04:03:43;;;;;;;20.30;12.88;;;4.90;95.00;;;;;;5045733;28;20045;-66
2022/03/10 04:06:09;;;;;;;21.80;11.95;;;4.90;94.90;;;;;;5039586;28;20055;-66
2022/03/10 04:08:35;;;;;;;26.88;13.73;;;4.90;94.90;;;;;;5048284;28;20052;-66
2022/03/10 04:11:01;;;;;;;21.13;13.70;;;5.00;95.00;;;;;;5047252;28;20075;-66
2022/03/10 04:13:27;;;;;;;18.27;13.45;;;5.00;94.80;;;;;;5031303;28;20060;-66
2022/03/10 04:15:53;;;;;;;20.65;12.90;;;4.90;94.90;;;;;;5038274;28;20040;-66
2022/03/10 04:18:19;;;;;;;16.75;13.07;;;4.90;94.80;;;;;;5042103;28;20048;-66
2022/03/10 04:20:45;;;;;;;20.55;14.43;;;4.90;95.00;;;;;;5027706;28;20484;-66
2022/03/10 04:23:14;;;;;;;19.10;12.90;;;4.90;94.50;;;;;;5027935;28;20274;-66
2022/03/10 04:25:40;;;;;;;19.30;13.27;;;4.80;95.30;;;;;;5027164;28;20056;-66
2022/03/10 04:28:06;;;;;;;28.10;13.68;;;4.80;95.10;;;;;;5043961;28;20056;-66
2022/03/10 04:30:33;;;;;;;17.33;12.52;;;4.80;95.80;;;;;;5044974;28;20044;-66
2022/03/10 04:32:59;;;;;;;22.23;13.82;;;4.80;95.30;;;;;;5031420;28;20044;-66
2022/03/10 04:35:25;;;;;;;18.73;13.30;;;4.70;95.50;;;;;;5028622;28;20132;-66
2022/03/10 04:37:53;;;;;;;21.95;13.45;;;4.80;95.40;;;;;;5028164;28;20076;-66
2022/03/10 04:40:19;;;;;;;20.85;14.05;;;4.70;96.00;;;;;;5028319;28;20045;-66
2022/03/10 04:42:45;;;;;;;19.25;12.68;;;4.70;96.10;;;;;;5040422;28;20048;-66
2022/03/10 04:45:11;;;;;;;20.58;13.68;;;4.60;96.60;;;;;;5034095;28;20036;-66
2022/03/10 04:47:38;;;;;;;21.63;14.27;;;4.60;96.70;;;;;;5048276;28;20037;-66
2022/03/10 04:50:05;;;;;;;18.92;13.45;;;4.60;96.60;;;;;;5044880;28;20511;-66
2022/03/10 04:52:31;;;;;;;25.52;14.55;;;4.50;97.10;;;;;;5027785;28;20402;-66
2022/03/10 04:54:56;;;;;;;24.00;14.55;;;4.60;96.60;;;;;;5028987;28;20064;-66
2022/03/10 04:57:22;;;;;;;24.77;13.75;;;4.60;96.90;;;;;;5041578;28;20080;-66
2022/03/10 04:59:48;;;;;;;22.05;14.45;;;4.50;97.70;;;;;;5035721;28;20091;-66
2022/03/10 05:02:13;;;;;;;21.75;14.85;;;4.60;96.90;;;;;;5043931;28;20043;-66
2022/03/10 05:04:39;;;;;;;19.48;14.02;;;4.50;97.30;;;;;;5048204;28;20046;-66
2022/03/10 05:07:04;;;;;;;21.17;14.82;;;4.50;97.00;;;;;;5034819;28;20072;-66
2022/03/10 05:09:30;;;;;;;26.52;13.88;;;4.60;97.10;;;;;;5027889;28;20074;-67
2022/03/10 05:11:56;;;;;;;17.50;12.57;;;4.50;96.80;;;;;;5034965;28;20305;-66
2022/03/10 05:14:22;;;;;;;21.08;13.50;;;4.50;96.60;;;;;;5027310;28;20702;-66
2022/03/10 05:16:48;;;;;;;18.73;12.88;;;4.40;96.80;;;;;;5045212;28;20796;-66
2022/03/10 05:19:13;;;;;;;22.13;15.40;;;4.40;97.20;;;;;;5040114;28;20053;-66
2022/03/10 05:21:39;;;;;;;21.00;14.68;;;4.40;97.60;;;;;;5032396;28;20084;-66
2022/03/10 05:24:05;;;;;;;28.17;13.95;;;4.40;96.80;;;;;;5030863;28;20045;-66
2022/03/10 05:26:31;;;;;;;21.60;14.63;;;4.40;96.70;;;;;;5039259;28;20047;-66
2022/03/10 05:28:56;;;;;;;22.05;14.70;;;4.40;97.60;;;;;;5045688;28;20042;-66
2022/03/10 05:31:22;;;;;;;20.85;14.60;;;4.40;97.70;;;;;;5041332;28;20084;-66
2022/03/10 05:33:47;;;;;;;28.70;16.15;;;4.30;98.60;;;;;;5050419;28;20107;-66
2022/03/10 05:36:13;;;;;;;23.13;15.63;;;4.20;98.00;;;;;;5043014;28;20049;-66
2022/03/10 05:38:39;;;;;;;23.73;15.88;;;4.30;97.60;;;;;;5032013;28;20041;-66
2022/03/10 05:41:05;;;;;;;18.92;13.90;;;4.30;98.80;;;;;;5046442;28;20537;-66
2022/03/10 05:43:31;;;;;;;29.85;15.45;;;4.30;97.90;;;;;;5047236;28;20735;-65
2022/03/10 05:45:57;;;;;;;20.33;14.20;;;4.20;98.40;;;;;;5047635;28;20042;-65
2022/03/10 05:48:23;;;;;;;24.38;15.35;;;4.20;98.40;;;;;;5034843;28;20680;-66
2022/03/10 05:50:48;;;;;;;25.20;15.02;;;4.10;98.40;;;;;;5038247;28;20556;-66
2022/03/10 05:53:14;;;;;;;24.73;15.15;;;4.10;98.90;;;;;;5050713;28;20159;-66
2022/03/10 05:55:40;;;;;;;23.13;16.25;;;4.10;99.10;;;;;;5043388;28;20068;-66
2022/03/10 05:58:05;;;;;;;27.75;15.75;;;4.10;99.50;;;;;;5035434;28;20053;-66
2022/03/10 06:00:31;;;;;;;27.30;15.23;;;4.10;99.50;;;;;;5032446;28;20120;-66
2022/03/10 06:02:57;;;;;;;22.92;15.73;;;4.00;99.10;;;;;;5048260;28;20048;-66
2022/03/10 06:05:22;;;;;;;22.73;14.48;;;4.10;98.50;;;;;;5041126;28;20045;-66
2022/03/10 06:07:48;;;;;;;25.63;17.23;;;4.10;99.10;;;;;;5031604;28;20132;-66
2022/03/10 06:10:13;;;;;;;26.70;14.65;;;4.10;99.20;;;;;;5030422;28;20049;-66
2022/03/10 06:12:39;;;;;;;24.55;17.08;;;4.10;98.90;;;;;;5044489;28;20496;-66
2022/03/10 06:15:08;;;;;;;26.20;17.60;;;4.10;99.20;;;;;;5040786;28;20048;-65
2022/03/10 06:17:33;;;;;;;33.78;21.63;;;4.20;98.80;;;;;;5040310;28;20053;-66
2022/03/10 06:19:59;;;;;;;31.70;20.52;;;4.10;99.00;;;;;;5042522;28;20045;-66
2022/03/10 06:22:29;;;;;;;34.92;22.80;;;4.10;98.80;;;;;;5036533;28;20042;-66
2022/03/10 06:24:55;;;;;;;28.20;19.17;;;4.10;98.60;;;;;;5030215;28;20516;-66
2022/03/10 06:27:23;;;;;;;32.72;21.42;;;4.10;98.60;;;;;;5029649;28;20135;-66
2022/03/10 06:29:50;;;;;;;23.73;17.08;;;4.10;98.40;;;;;;5030839;28;20041;-66
2022/03/10 06:32:18;;;;;;;22.40;16.40;;;4.10;98.70;;;;;;5045316;28;20224;-66
2022/03/10 06:34:44;;;;;;;27.30;17.80;;;4.20;98.60;;;;;;5031175;28;20041;-66
2022/03/10 06:37:10;;;;;;;28.15;17.17;;;4.10;98.60;;;;;;5029719;28;20049;-66
2022/03/10 06:39:35;;;;;;;25.27;17.02;;;4.20;98.60;;;;;;5031043;28;20512;-66
2022/03/10 06:42:02;;;;;;;27.00;16.65;;;4.20;98.20;;;;;;5044427;28;20798;-66
2022/03/10 06:44:32;;;;;;;19.25;14.98;;;4.20;98.00;;;;;;5031429;28;20060;-66
2022/03/10 06:46:57;;;;;;;25.58;15.73;;;4.20;98.70;;;;;;5032598;28;20041;-65
2022/03/10 06:49:23;;;;;;;23.10;15.10;;;4.30;98.30;;;;;;5037892;28;20052;-66
2022/03/10 06:51:49;;;;;;;24.85;17.13;;;4.30;98.20;;;;;;5049697;28;20060;-66
2022/03/10 06:54:16;;;;;;;51.00;30.45;;;4.20;99.00;;;;;;5044851;28;20256;-66
2022/03/10 06:56:42;;;;;;;24.60;17.73;;;4.30;98.20;;;;;;5041720;28;20073;-66
2022/03/10 06:59:07;;;;;;;26.00;16.73;;;4.30;98.40;;;;;;5029481;28;20077;-66
2022/03/10 07:01:33;;;;;;;22.13;14.82;;;4.40;98.40;;;;;;5033867;28;20041;-66
2022/03/10 07:03:59;;;;;;;25.52;15.43;;;4.40;98.30;;;;;;5044380;28;20064;-66
2022/03/10 07:06:25;;;;;;;24.13;15.07;;;4.40;97.70;;;;;;5048323;28;20048;-65
2022/03/10 07:08:51;;;;;;;24.58;15.30;;;4.60;97.60;;;;;;5044578;28;20057;-64
2022/03/10 07:11:18;;;;;;;20.95;13.82;;;4.60;98.70;;;;;;5039795;28;20484;-65
2022/03/10 07:13:44;;;;;;;22.30;15.23;;;4.70;97.10;;;;;;5047771;28;20609;-65
2022/03/10 07:16:10;;;;;;;19.95;14.75;;;4.70;97.20;;;;;;5048813;28;20135;-65
2022/03/10 07:18:36;;;;;;;23.25;14.57;;;4.90;96.00;;;;;;5043776;28;20072;-65
2022/03/10 07:21:04;;;;;;;23.20;14.18;;;4.90;96.10;;;;;;5034635;28;20041;-65
2022/03/10 07:23:31;;;;;;;22.65;14.48;;;5.00;96.30;;;;;;5034735;28;20098;-65
2022/03/10 07:25:56;;;;;;;22.20;13.82;;;4.90;96.40;;;;;;5047914;28;20087;-65
2022/03/10 07:28:22;;;;;;;25.08;16.10;;;5.00;96.30;;;;;;5039589;28;20708;-65
2022/03/10 07:30:48;;;;;;;28.58;15.25;;;5.00;96.70;;;;;;5030155;28;20045;-66
2022/03/10 07:33:13;;;;;;;25.05;14.95;;;5.00;95.80;;;;;;5031075;28;20070;-66
2022/03/10 07:35:39;;;;;;;21.95;14.82;;;5.10;95.90;;;;;;5029554;28;20075;-65
2022/03/10 07:38:05;;;;;;;24.10;15.23;;;5.10;96.10;;;;;;5028445;28;20643;-65
2022/03/10 07:40:31;;;;;;;28.95;17.17;;;5.20;96.20;;;;;;5045623;28;20121;-65
2022/03/10 07:42:56;;;;;;;29.77;16.67;;;5.20;96.20;;;;;;5029254;28;20053;-65
2022/03/10 07:45:22;;;;;;;25.33;16.00;;;5.20;96.50;;;;;;5041562;28;20051;-65
2022/03/10 07:47:48;;;;;;;25.15;15.85;;;5.30;96.00;;;;;;5039036;28;20033;-66
2022/03/10 07:50:13;;;;;;;26.95;15.23;;;5.30;95.50;;;;;;5040991;28;20048;-66
2022/03/10 07:52:40;;;;;;;24.02;14.63;;;5.40;96.30;;;;;;5028485;28;20069;-65
2022/03/10 07:55:08;;;;;;;24.00;15.55;;;5.40;96.40;;;;;;5027390;28;20057;-65
2022/03/10 07:57:36;;;;;;;21.42;15.85;;;5.50;96.50;;;;;;5033435;28;20043;-65
2022/03/10 08:00:06;;;;;;;23.27;15.25;;;5.50;96.10;;;;;;5034204;28;20554;-65
2022/03/10 08:02:31;;;;;;;24.00;15.38;;;5.60;96.80;;;;;;5030677;28;20045;-65
2022/03/10 08:04:57;;;;;;;23.05;15.98;;;5.70;95.40;;;;;;5030510;28;20091;-65
2022/03/10 08:07:23;;;;;;;26.58;16.17;;;5.80;95.70;;;;;;5035837;28;20616;-65
2022/03/10 08:09:48;;;;;;;25.90;16.63;;;5.90;97.30;;;;;;5047742;28;20040;-65
2022/03/10 08:12:14;;;;;;;21.80;15.00;;;6.00;96.40;;;;;;5046207;28;20045;-65
2022/03/10 08:14:40;;;;;;;27.95;16.48;;;6.10;96.30;;;;;;5034900;28;20049;-66
2022/03/10 08:17:05;;;;;;;23.13;14.93;;;6.10;96.20;;;;;;5047041;28;20343;-66
2022/03/10 08:19:31;;;;;;;20.30;14.40;;;6.20;96.10;;;;;;5048118;28;20103;-66
2022/03/10 08:21:56;;;;;;;25.83;17.55;;;6.20;97.10;;;;;;5031424;28;20084;-66
2022/03/10 08:24:22;;;;;;;23.52;16.73;;;6.30;96.70;;;;;;5027675;28;20496;-66
2022/03/10 08:26:48;;;;;;;20.73;14.43;;;6.40;95.70;;;;;;5029529;28;20037;-66
2022/03/10 08:29:13;;;;;;;19.15;15.07;;;6.50;96.40;;;;;;5031316;28;20053;-66
2022/03/10 08:31:39;;;;;;;22.95;14.85;;;6.60;96.90;;;;;;5029010;28;20047;-66
2022/03/10 08:34:04;;;;;;;22.58;15.50;;;6.60;95.40;;;;;;5028920;28;20470;-66
2022/03/10 08:36:30;;;;;;;23.85;15.70;;;6.60;95.80;;;;;;5027898;28;20049;-66
2022/03/10 08:38:56;;;;;;;22.63;15.65;;;6.70;95.10;;;;;;5028030;28;20065;-66
2022/03/10 08:41:21;;;;;;;22.40;15.48;;;6.90;94.70;;;;;;5029992;28;20049;-66
2022/03/10 08:43:47;;;;;;;22.27;15.32;;;6.90;94.60;;;;;;5048094;28;20041;-65
2022/03/10 08:46:12;;;;;;;24.10;15.48;;;7.00;94.40;;;;;;5045806;28;20041;-66
2022/03/10 08:48:40;;;;;;;25.55;15.05;;;6.90;95.00;;;;;;5028542;28;20485;-66
2022/03/10 08:51:06;;;;;;;26.73;17.42;;;7.00;96.30;;;;;;5037508;28;20053;-66
2022/03/10 08:53:32;;;;;;;24.45;16.63;;;7.10;95.60;;;;;;5045555;28;20098;-66
2022/03/10 08:55:58;;;;;;;21.65;15.60;;;7.10;94.90;;;;;;5048675;28;20121;-65
2022/03/10 08:58:24;;;;;;;23.52;16.63;;;7.20;94.90;;;;;;5037337;28;20053;-66
2022/03/10 09:00:50;;;;;;;19.88;14.63;;;7.30;94.60;;;;;;5027922;28;20096;-66
2022/03/10 09:03:15;;;;;;;23.98;15.55;;;7.40;94.60;;;;;;5029833;28;20076;-66
2022/03/10 09:05:42;;;;;;;22.13;15.07;;;7.40;94.90;;;;;;5047840;28;20080;-66
2022/03/10 09:08:07;;;;;;;23.98;15.95;;;7.50;95.00;;;;;;5043143;28;20112;-65
2022/03/10 09:10:33;;;;;;;26.77;15.52;;;7.50;94.40;;;;;;5048355;28;20135;-66
2022/03/10 09:12:59;;;;;;;21.60;15.23;;;7.60;95.10;;;;;;5044736;28;20072;-66
2022/03/10 09:15:26;;;;;;;26.15;16.33;;;7.70;95.90;;;;;;5027774;28;20124;-66
2022/03/10 09:17:52;;;;;;;25.58;16.55;;;7.80;94.70;;;;;;5043053;28;20124;-66
2022/03/10 09:20:18;;;;;;;21.83;15.45;;;7.80;94.70;;;;;;5047072;28;20049;-66
2022/03/10 09:22:45;;;;;;;29.17;17.50;;;7.90;94.50;;;;;;5048600;28;20047;-66
2022/03/10 09:25:12;;;;;;;22.73;14.20;;;8.00;94.40;;;;;;5034844;28;20406;-66
2022/03/10 09:27:38;;;;;;;22.55;14.68;;;8.20;95.20;;;;;;5030824;28;20102;-66
2022/03/10 09:30:06;;;;;;;28.35;16.48;;;8.30;96.40;;;;;;5047706;28;20044;-66
2022/03/10 09:32:39;;;;;;;25.02;16.13;;;8.80;94.90;;;;;;5027455;28;20049;-66
2022/03/10 09:35:07;;;;;;;23.02;14.52;;;9.80;92.90;;;;;;5042146;28;20136;-66
2022/03/10 09:37:34;;;;;;;24.92;16.65;;;10.60;91.60;;;;;;5041293;28;20041;-66
2022/03/10 09:39:59;;;;;;;23.08;15.50;;;11.50;89.60;;;;;;5037924;28;20056;-66
2022/03/10 09:42:29;;;;;;;21.45;14.85;;;12.10;86.40;;;;;;5045519;28;20044;-66
2022/03/10 09:45:00;;;;;;;28.08;17.50;;;12.90;84.40;;;;;;5047740;28;20043;-66
2022/03/10 09:47:26;;;;;;;23.40;16.33;;;12.90;82.60;;;;;;5035453;28;20634;-66
2022/03/10 09:49:53;;;;;;;25.15;16.67;;;13.30;81.60;;;;;;5040787;28;20250;-66
2022/03/10 09:52:20;;;;;;;25.02;17.92;;;13.70;81.80;;;;;;5046316;28;20053;-66
2022/03/10 09:54:45;;;;;;;25.35;15.20;;;14.00;78.20;;;;;;5047301;28;20053;-66
2022/03/10 09:57:14;;;;;;;24.08;14.75;;;14.10;78.90;;;;;;5039908;28;20049;-66
2022/03/10 09:59:49;;;;;;;22.05;16.17;;;14.70;76.20;;;;;;5035870;28;20056;-66
2022/03/10 10:02:15;;;;;;;24.60;17.25;;;14.40;76.00;;;;;;5026783;28;20538;-66
2022/03/10 10:04:41;;;;;;;29.63;16.73;;;14.30;77.70;;;;;;5033275;28;20040;-66
2022/03/10 10:07:08;;;;;;;25.48;16.80;;;14.40;77.60;;;;;;5030933;28;20110;-66
2022/03/10 10:09:50;;;;;;;21.67;16.70;;;14.60;78.00;;;;;;5049582;28;20056;-66
2022/03/10 10:12:17;;;;;;;28.00;15.32;;;14.70;77.10;;;;;;5050966;28;20053;-66
2022/03/10 10:14:44;;;;;;;29.63;17.85;;;14.60;78.40;;;;;;5047962;28;20045;-66
2022/03/10 10:17:11;;;;;;;25.20;16.13;;;14.60;77.00;;;;;;5050508;28;20120;-65
2022/03/10 10:19:38;;;;;;;25.40;17.92;;;14.60;76.20;;;;;;5049963;28;20060;-66
2022/03/10 10:22:12;;;;;;;23.90;16.73;;;14.70;75.90;;;;;;5050514;28;20044;-66
2022/03/10 10:24:38;;;;;;;23.60;15.98;;;14.70;74.70;;;;;;5039628;28;20424;-66
2022/03/10 10:27:17;;;;;;;25.40;17.35;;;14.70;75.80;;;;;;5048816;28;20049;-65
2022/03/10 10:29:51;;;;;;;25.88;16.67;;;14.60;75.50;;;;;;5046883;28;20481;-66
2022/03/10 10:32:46;;;;;;;30.20;18.50;;;14.70;76.80;;;;;;5045349;28;20095;-66
2022/03/10 10:35:20;;;;;;;27.02;18.33;;;14.70;77.50;;;;;;5033786;28;20115;-66
2022/03/10 10:37:49;;;;;;;27.02;17.55;;;14.70;76.50;;;;;;5050501;28;20044;-66
2022/03/10 10:40:21;;;;;;;30.65;18.45;;;14.80;77.20;;;;;;5045208;28;20084;-65
2022/03/10 10:42:47;;;;;;;29.88;19.88;;;14.90;76.40;;;;;;5032313;28;20049;-66
2022/03/10 10:45:30;;;;;;;28.38;18.30;;;14.90;76.60;;;;;;5041681;28;20047;-65
2022/03/10 10:48:00;;;;;;;27.53;17.60;;;15.10;78.20;;;;;;5050920;28;20048;-65
2022/03/10 10:50:29;;;;;;;31.85;19.00;;;15.20;77.10;;;;;;5033504;28;20047;-66
2022/03/10 10:52:54;;;;;;;28.10;18.05;;;15.10;76.10;;;;;;5045407;28;20452;-65
2022/03/10 10:55:20;;;;;;;25.35;16.30;;;15.10;76.90;;;;;;5044027;28;20063;-66
2022/03/10 10:57:45;;;;;;;29.95;17.83;;;15.00;79.30;;;;;;5034451;28;20046;-65
2022/03/10 11:00:13;;;;;;;30.65;19.83;;;14.90;77.80;;;;;;5035121;28;20034;-66
2022/03/10 11:02:43;;;;;;;28.92;19.55;;;14.70;75.30;;;;;;5030585;28;20045;-66
2022/03/10 11:05:14;;;;;;;25.67;18.27;;;14.50;77.20;;;;;;5043625;28;20064;-66
2022/03/10 11:07:40;;;;;;;33.47;19.67;;;14.70;77.20;;;;;;5033035;28;20045;-66
2022/03/10 11:10:07;;;;;;;28.88;17.55;;;14.80;75.20;;;;;;5028539;28;20045;-66
2022/03/10 11:12:37;;;;;;;30.80;19.10;;;14.90;76.60;;;;;;5028931;28;20045;-66
2022/03/10 11:15:03;;;;;;;22.85;15.55;;;15.20;76.10;;;;;;5036390;28;20045;-66
2022/03/10 11:17:29;;;;;;;33.92;19.98;;;15.20;75.90;;;;;;5037281;28;20483;-66
2022/03/10 11:19:56;;;;;;;27.50;19.20;;;15.40;76.90;;;;;;5042965;28;20042;-66
2022/03/10 11:22:31;;;;;;;30.45;19.58;;;15.60;75.00;;;;;;5038271;28;20094;-66
2022/03/10 11:25:25;;;;;;;30.00;19.05;;;16.00;75.40;;;;;;5034251;28;20053;-65
2022/03/10 11:28:04;;;;;;;34.75;18.98;;;16.30;74.70;;;;;;5048855;28;20080;-66
2022/03/10 11:30:32;;;;;;;33.40;20.85;;;16.40;74.10;;;;;;5048786;28;20535;-66
2022/03/10 11:33:10;;;;;;;28.35;18.88;;;16.30;71.40;;;;;;5032184;28;20042;-66
2022/03/10 11:35:41;;;;;;;27.98;18.88;;;16.60;73.00;;;;;;5030299;28;20107;-66
2022/03/10 11:38:09;;;;;;;29.75;18.48;;;16.70;72.40;;;;;;5027616;28;20042;-66
2022/03/10 11:40:46;;;;;;;34.75;18.15;;;16.90;73.20;;;;;;5028647;28;20052;-67
2022/03/10 11:43:18;;;;;;;27.27;17.90;;;17.20;71.40;;;;;;5035173;28;20053;-66
2022/03/10 11:45:43;;;;;;;32.40;21.38;;;17.40;71.70;;;;;;5049547;28;20515;-67
2022/03/10 11:48:27;;;;;;;28.70;19.65;;;17.40;71.20;;;;;;5048632;28;20045;-67
2022/03/10 11:50:54;;;;;;;28.75;19.08;;;17.60;70.40;;;;;;5032287;28;20049;-66
2022/03/10 11:53:19;;;;;;;30.67;18.98;;;17.60;69.30;;;;;;5027521;28;20108;-67
2022/03/10 11:55:50;;;;;;;29.70;18.45;;;17.90;70.30;;;;;;5032218;28;20080;-67
2022/03/10 11:58:18;;;;;;;31.17;21.05;;;17.90;71.00;;;;;;5048168;28;20095;-66
2022/03/10 12:00:57;;;;;;;27.65;18.92;;;17.90;69.50;;;;;;5048640;28;20041;-67
2022/03/10 12:03:46;;;;;;;29.60;19.33;;;18.10;69.50;;;;;;5036907;28;20547;-66
2022/03/10 12:06:16;;;;;;;30.67;20.67;;;18.10;68.80;;;;;;5036263;28;20037;-66
2022/03/10 12:09:01;;;;;;;28.05;20.17;;;18.20;68.20;;;;;;5038931;28;20049;-66
2022/03/10 12:11:47;;;;;;;32.03;20.33;;;18.20;68.30;;;;;;5031582;28;20041;-66
2022/03/10 12:14:27;;;;;;;35.70;18.92;;;18.10;67.50;;;;;;5033448;28;20033;-66
2022/03/10 12:16:52;;;;;;;31.92;21.52;;;18.40;69.00;;;;;;5048428;28;20040;-66
2022/03/10 12:19:18;;;;;;;29.23;20.23;;;18.60;68.20;;;;;;5033410;28;20405;-66
2022/03/10 12:21:44;;;;;;;30.52;19.65;;;18.70;67.00;;;;;;5028517;28;20412;-65
2022/03/10 12:24:12;;;;;;;28.40;18.73;;;18.70;66.90;;;;;;5031197;28;20588;-66
2022/03/10 12:26:40;;;;;;;29.77;20.70;;;18.70;67.80;;;;;;5036164;28;20043;-66
2022/03/10 12:29:13;;;;;;;28.42;20.45;;;18.60;65.30;;;;;;5036611;28;20068;-66
2022/03/10 12:31:41;;;;;;;26.92;18.45;;;18.80;65.50;;;;;;5027582;28;20051;-66
2022/03/10 12:34:14;;;;;;;27.85;19.65;;;19.00;66.20;;;;;;5028597;28;20053;-66
2022/03/10 12:36:50;;;;;;;23.63;17.55;;;19.20;65.20;;;;;;5026833;28;20490;-66
2022/03/10 12:39:20;;;;;;;27.40;18.90;;;19.10;65.70;;;;;;5029645;28;20053;-66
2022/03/10 12:41:51;;;;;;;32.05;21.85;;;18.80;65.70;;;;;;5029775;28;20073;-66